Time;durP1;ratioP1;P1;durP2;ratioP2;P2;SDS_P1;SDS_P2;PMS_P1;PMS_P2;Temp;Humidity;BMP_temperature;BMP_pressure;BME280_temperature;BME280_humidity;BME280_pressure;Samples;Min_cycle;Max_cycle;Signal;HPM_P1;HPM_P2
2021/05/23 00:02:12;;;;;;;;;;;;;;;20.39;37.79;99466.16;4412150;32;20006;-48
2021/05/23 00:04:38;;;;;;;;;;;;;;;20.39;37.99;99466.16;4416647;32;19962;-49
2021/05/23 00:07:03;;;;;;;;;;;;;;;20.38;37.87;99459.13;4408192;32;19958;-50
2021/05/23 00:09:29;;;;;;;;;;;;;;;20.39;38.00;99460.87;4415724;32;19984;-49
2021/05/23 00:11:55;;;;;;;;;;;;;;;20.37;37.79;99467.94;4417140;32;20316;-47
2021/05/23 00:14:21;;;;;;;;;;;;;;;20.38;38.09;99458.25;4417594;32;19991;-50
2021/05/23 00:16:47;;;;;;;;;;;;;;;20.37;37.94;99457.34;4418889;32;19950;-47
2021/05/23 00:19:13;;;;;;;;;;;;;;;20.37;37.90;99462.66;4418833;32;19946;-50
2021/05/23 00:21:39;;;;;;;;;;;;;;;20.34;37.94;99455.59;4413620;32;19950;-48
2021/05/23 00:24:05;;;;;;;;;;;;;;;20.30;38.11;99455.59;4403304;32;19993;-46
2021/05/23 00:26:31;;;;;;;;;;;;;;;20.32;38.16;99454.72;4408408;32;19972;-49
2021/05/23 00:28:57;;;;;;;;;;;;;;;20.32;38.09;99464.44;4418661;32;19965;-45
2021/05/23 00:31:22;;;;;;;;;;;;;;;20.32;38.10;99465.28;4415739;32;20492;-52
2021/05/23 00:33:48;;;;;;;;;;;;;;;20.27;38.17;99463.53;4403818;32;19950;-47
2021/05/23 00:36:14;;;;;;;;;;;;;;;20.31;38.17;99468.81;4404623;32;19986;-50
2021/05/23 00:38:40;;;;;;;;;;;;;;;20.32;38.01;99475.00;4418975;32;19988;-47
2021/05/23 00:41:06;;;;;;;;;;;;;;;20.31;38.15;99470.56;4418866;32;20326;-51
2021/05/23 00:43:32;;;;;;;;;;;;;;;20.31;37.95;99471.47;4418496;32;19965;-50
2021/05/23 00:45:58;;;;;;;;;;;;;;;20.31;37.96;99478.50;4418916;32;19972;-52
2021/05/23 00:48:24;;;;;;;;;;;;;;;20.26;37.66;99475.00;4404977;32;19970;-49
2021/05/23 00:50:50;;;;;;;;;;;;;;;20.29;37.89;99469.69;4402864;32;19954;-48
2021/05/23 00:53:16;;;;;;;;;;;;;;;20.27;37.90;99471.47;4415733;32;19950;-49
2021/05/23 00:55:42;;;;;;;;;;;;;;;20.25;38.17;99468.84;4419155;32;20332;-49
2021/05/23 00:58:07;;;;;;;;;;;;;;;20.23;38.05;99470.59;4407191;32;19970;-51
2021/05/23 01:00:34;;;;;;;;;;;;;;;20.22;38.26;99464.44;4402694;32;20407;-49
2021/05/23 01:03:00;;;;;;;;;;;;;;;20.25;38.24;99457.38;4413668;32;19961;-52
2021/05/23 01:05:25;;;;;;;;;;;;;;;20.21;38.15;99462.69;4417779;32;19957;-50
2021/05/23 01:07:51;;;;;;;;;;;;;;;20.28;38.08;99462.66;4415900;32;19960;-49
2021/05/23 01:10:17;;;;;;;;;;;;;;;20.23;37.85;99462.66;4417825;32;20049;-51
2021/05/23 01:12:43;;;;;;;;;;;;;;;20.20;38.04;99468.84;4418827;32;20006;-50
2021/05/23 01:15:09;;;;;;;;;;;;;;;20.22;37.76;99459.16;4416885;32;20339;-49
2021/05/23 01:17:35;;;;;;;;;;;;;;;20.21;38.11;99456.50;4413281;32;19974;-48
2021/05/23 01:20:01;;;;;;;;;;;;;;;20.20;38.07;99463.56;4402638;32;19974;-49
2021/05/23 01:22:27;;;;;;;;;;;;;;;20.21;37.93;99462.69;4407373;32;19988;-50
2021/05/23 01:24:53;;;;;;;;;;;;;;;20.22;37.61;99464.44;4418210;32;19981;-51
2021/05/23 01:27:19;;;;;;;;;;;;;;;20.20;37.54;99466.22;4415501;32;19984;-50
2021/05/23 01:29:44;;;;;;;;;;;;;;;20.17;37.61;99471.47;4402648;32;19993;-48
2021/05/23 01:32:12;;;;;;;;;;;;;;;20.19;37.81;99463.56;4404001;32;19970;-47
2021/05/23 01:34:38;;;;;;;;;;;;;;;20.17;37.64;99463.56;4418326;32;19966;-48
2021/05/23 01:37:04;;;;;;;;;;;;;;;20.18;37.81;99462.66;4418002;32;19951;-48
2021/05/23 01:39:29;;;;;;;;;;;;;;;20.16;37.83;99468.88;4414213;32;20565;-48
2021/05/23 01:41:55;;;;;;;;;;;;;;;20.15;37.91;99472.38;4418377;32;19946;-47
2021/05/23 01:44:21;;;;;;;;;;;;;;;20.14;37.01;99471.50;4417324;32;19950;-50
2021/05/23 01:46:47;;;;;;;;;;;;;;;20.18;37.72;99465.31;4418354;32;20285;-50
2021/05/23 01:49:13;;;;;;;;;;;;;;;20.16;37.59;99480.28;4404882;32;19959;-49
2021/05/23 01:51:39;;;;;;;;;;;;;;;20.17;37.21;99482.06;4402634;32;20027;-48
2021/05/23 01:54:05;;;;;;;;;;;;;;;20.17;37.53;99486.47;4413778;32;19997;-48
2021/05/23 01:56:31;;;;;;;;;;;;;;;20.17;37.13;99486.47;4418275;32;19955;-47
2021/05/23 01:58:56;;;;;;;;;;;;;;;20.20;37.40;99492.66;4416048;32;20295;-50
2021/05/23 02:01:24;;;;;;;;;;;;;;;20.18;37.15;99478.53;4417487;32;19955;-49
2021/05/23 02:03:50;;;;;;;;;;;;;;;20.13;37.21;99479.44;4418102;32;19946;-48
2021/05/23 02:06:16;;;;;;;;;;;;;;;20.17;37.48;99481.19;4416984;32;19942;-46
2021/05/23 02:08:42;;;;;;;;;;;;;;;20.17;37.13;99482.06;4416254;32;19969;-51
2021/05/23 02:11:08;;;;;;;;;;;;;;;20.16;37.09;99482.94;4417338;32;19995;-50
2021/05/23 02:13:34;;;;;;;;;;;;;;;20.14;36.66;99484.72;4417693;32;19984;-50
2021/05/23 02:16:00;;;;;;;;;;;;;;;20.17;37.20;99482.06;4416825;32;20037;-52
2021/05/23 02:18:26;;;;;;;;;;;;;;;20.18;37.40;99483.81;4413081;32;19988;-48
2021/05/23 02:20:51;;;;;;;;;;;;;;;20.16;37.73;99490.87;4402155;32;20311;-48
2021/05/23 02:23:17;;;;;;;;;;;;;;;20.11;37.92;99482.06;4405004;32;19994;-48
2021/05/23 02:25:43;;;;;;;;;;;;;;;20.07;37.78;99475.91;4417000;32;19998;-49
2021/05/23 02:28:09;;;;;;;;;;;;;;;20.07;37.56;99491.75;4415355;32;20005;-51
2021/05/23 02:30:35;;;;;;;;;;;;;;;20.12;36.87;99482.94;4402362;32;19966;-48
2021/05/23 02:33:01;;;;;;;;;;;;;;;20.12;37.44;99493.50;4402758;32;19965;-49
2021/05/23 02:35:27;;;;;;;;;;;;;;;20.07;37.84;99491.75;4416799;32;20339;-48
2021/05/23 02:37:53;;;;;;;;;;;;;;;20.10;37.53;99496.19;4416458;32;19965;-50
2021/05/23 02:40:19;;;;;;;;;;;;;;;20.13;36.89;99501.44;4416537;32;19961;-49
2021/05/23 02:42:45;;;;;;;;;;;;;;;20.10;37.00;99498.81;4417662;32;20346;-46
2021/05/23 02:45:11;;;;;;;;;;;;;;;20.09;37.14;99505.00;4403424;32;19950;-48
2021/05/23 02:47:36;;;;;;;;;;;;;;;20.13;37.17;99509.38;4402048;32;19962;-49
2021/05/23 02:50:02;;;;;;;;;;;;;;;20.08;37.12;99503.22;4411419;32;19954;-48
2021/05/23 02:52:28;;;;;;;;;;;;;;;20.06;37.46;99504.97;4417497;32;19980;-49
2021/05/23 02:54:54;;;;;;;;;;;;;;;20.10;37.59;99506.75;4406339;32;20161;-52
2021/05/23 02:57:20;;;;;;;;;;;;;;;20.09;37.53;99515.56;4401769;32;19977;-50
2021/05/23 02:59:46;;;;;;;;;;;;;;;20.09;37.56;99520.84;4409514;32;20333;-49
2021/05/23 03:02:12;;;;;;;;;;;;;;;20.06;37.61;99524.38;4416570;32;19974;-50
2021/05/23 03:04:38;;;;;;;;;;;;;;;20.06;36.79;99532.28;4415609;32;19969;-51
2021/05/23 03:07:04;;;;;;;;;;;;;;;20.07;37.21;99523.47;4416141;32;19954;-47
2021/05/23 03:09:29;;;;;;;;;;;;;;;20.05;37.02;99538.47;4412638;32;19981;-49
2021/05/23 03:11:55;;;;;;;;;;;;;;;20.12;36.93;99534.06;4417249;32;19958;-49
2021/05/23 03:14:21;;;;;;;;;;;;;;;20.04;37.93;99539.34;4411698;32;19969;-46
2021/05/23 03:16:47;;;;;;;;;;;;;;;20.01;37.38;99544.63;4401682;32;19988;-49
2021/05/23 03:19:13;;;;;;;;;;;;;;;19.99;38.07;99540.22;4404040;32;20588;-48
2021/05/23 03:21:39;;;;;;;;;;;;;;;20.00;37.95;99548.16;4416560;32;19957;-50
2021/05/23 03:24:05;;;;;;;;;;;;;;;20.03;37.62;99552.53;4414925;32;20055;-50
2021/05/23 03:26:31;;;;;;;;;;;;;;;20.03;38.04;99556.09;4401846;32;19939;-50
2021/05/23 03:28:57;;;;;;;;;;;;;;;20.03;36.99;99553.44;4401361;32;19961;-50
2021/05/23 03:31:22;;;;;;;;;;;;;;;20.06;37.19;99552.53;4416084;32;20002;-49
2021/05/23 03:33:48;;;;;;;;;;;;;;;20.00;37.78;99557.84;4417439;32;20024;-46
2021/05/23 03:36:14;;;;;;;;;;;;;;;20.01;37.42;99567.53;4401263;32;20076;-51
2021/05/23 03:38:40;;;;;;;;;;;;;;;20.00;37.64;99568.41;4405448;32;19974;-47
2021/05/23 03:41:06;;;;;;;;;;;;;;;19.98;37.32;99575.47;4416584;32;20780;-49
2021/05/23 03:43:32;;;;;;;;;;;;;;;19.97;37.55;99569.28;4416679;32;20042;-50
2021/05/23 03:45:58;;;;;;;;;;;;;;;19.96;37.48;99572.81;4404588;32;19981;-47
2021/05/23 03:48:24;;;;;;;;;;;;;;;19.96;38.23;99579.88;4402973;32;20375;-49
2021/05/23 03:50:49;;;;;;;;;;;;;;;19.93;37.32;99594.81;4413626;32;19966;-49
2021/05/23 03:53:15;;;;;;;;;;;;;;;19.92;37.97;99595.69;4419138;32;19988;-50
2021/05/23 03:55:41;;;;;;;;;;;;;;;19.98;37.39;99601.88;4411002;32;19988;-50
2021/05/23 03:58:07;;;;;;;;;;;;;;;19.97;37.24;99605.41;4403710;32;20572;-47
2021/05/23 04:00:35;;;;;;;;;;;;;;;19.98;37.20;99600.09;4411113;32;19951;-46
2021/05/23 04:03:01;;;;;;;;;;;;;;;19.94;37.70;99607.16;4419436;32;19991;-47
2021/05/23 04:05:27;;;;;;;;;;;;;;;19.97;37.40;99610.69;4412459;32;20327;-48
2021/05/23 04:07:53;;;;;;;;;;;;;;;20.01;37.07;99612.44;4404410;32;19954;-48
2021/05/23 04:10:23;;;;;;;;;;;;;;;20.00;37.25;99610.69;4417089;32;20018;-50
2021/05/23 04:12:50;;;;;;;;;;;;;;;19.99;37.35;99619.50;4419183;32;19968;-48
2021/05/23 04:15:17;;;;;;;;;;;;;;;19.97;37.32;99615.97;4414948;32;19963;-46
2021/05/23 04:17:43;;;;;;;;;;;;;;;19.96;38.00;99617.72;4404466;32;20005;-51
2021/05/23 04:20:09;;;;;;;;;;;;;;;19.97;37.31;99621.25;4405466;32;20342;-50
2021/05/23 04:22:35;;;;;;;;;;;;;;;20.00;37.48;99626.53;4419626;32;20003;-50
2021/05/23 04:25:01;;;;;;;;;;;;;;;19.99;37.35;99624.78;4418401;32;19954;-46
2021/05/23 04:27:27;;;;;;;;;;;;;;;19.98;37.46;99630.94;4403928;32;19958;-49
2021/05/23 04:29:53;;;;;;;;;;;;;;;19.99;37.64;99630.06;4401921;32;19954;-50
2021/05/23 04:32:18;;;;;;;;;;;;;;;20.01;37.39;99638.88;4418362;32;20317;-47
2021/05/23 04:34:44;;;;;;;;;;;;;;;20.02;37.40;99643.28;4418952;32;20026;-50
2021/05/23 04:37:10;;;;;;;;;;;;;;;19.98;37.57;99639.75;4405220;32;19950;-50
2021/05/23 04:39:36;;;;;;;;;;;;;;;19.99;37.74;99638.00;4412651;32;20296;-45
2021/05/23 04:42:02;;;;;;;;;;;;;;;20.00;37.83;99637.13;4419322;32;19997;-51
2021/05/23 04:44:28;;;;;;;;;;;;;;;20.04;37.49;99644.16;4418120;32;20571;-48
2021/05/23 04:46:54;;;;;;;;;;;;;;;20.02;37.41;99651.22;4407895;32;19962;-48
2021/05/23 04:49:20;;;;;;;;;;;;;;;19.98;37.47;99667.94;4402832;32;19961;-48
2021/05/23 04:51:46;;;;;;;;;;;;;;;20.00;37.36;99666.19;4412260;32;19954;-51
2021/05/23 04:54:12;;;;;;;;;;;;;;;19.99;37.43;99669.72;4418531;32;20345;-47
2021/05/23 04:56:38;;;;;;;;;;;;;;;20.02;37.35;99677.62;4411081;32;19973;-48
2021/05/23 04:59:03;;;;;;;;;;;;;;;19.98;37.54;99679.38;4402192;32;19961;-52
2021/05/23 05:01:29;;;;;;;;;;;;;;;19.98;37.37;99682.03;4408902;32;19962;-49
2021/05/23 05:03:55;;;;;;;;;;;;;;;19.96;37.49;99693.50;4418699;32;20012;-51
2021/05/23 05:06:21;;;;;;;;;;;;;;;19.98;37.49;99702.31;4412223;32;19954;-46
2021/05/23 05:08:47;;;;;;;;;;;;;;;19.97;37.47;99689.97;4406772;32;19999;-50
2021/05/23 05:11:13;;;;;;;;;;;;;;;19.99;37.43;99698.78;4418580;32;20822;-49
2021/05/23 05:13:39;;;;;;;;;;;;;;;19.98;37.66;99697.03;4418395;32;19967;-50
2021/05/23 05:16:05;;;;;;;;;;;;;;;19.95;37.56;99703.16;4418696;32;19982;-49
2021/05/23 05:18:31;;;;;;;;;;;;;;;19.97;37.54;99709.34;4418920;32;20036;-48
2021/05/23 05:20:57;;;;;;;;;;;;;;;19.96;37.82;99710.22;4418155;32;19966;-49
2021/05/23 05:23:23;;;;;;;;;;;;;;;19.96;37.50;99710.22;4417854;32;20040;-50
2021/05/23 05:25:48;;;;;;;;;;;;;;;19.96;37.36;99714.62;4419243;32;20346;-50
2021/05/23 05:28:14;;;;;;;;;;;;;;;19.96;37.63;99712.00;4417655;32;19972;-47
2021/05/23 05:30:40;;;;;;;;;;;;;;;20.00;37.64;99711.13;4418028;32;19949;-51
2021/05/23 05:33:06;;;;;;;;;;;;;;;19.98;37.66;99718.16;4418717;32;19968;-48
2021/05/23 05:35:32;;;;;;;;;;;;;;;19.99;37.39;99712.00;4417866;32;20327;-48
2021/05/23 05:37:58;;;;;;;;;;;;;;;20.01;37.71;99723.44;4418549;32;19987;-46
2021/05/23 05:40:24;;;;;;;;;;;;;;;20.01;37.41;99718.16;4417989;32;20011;-49
2021/05/23 05:42:50;;;;;;;;;;;;;;;20.01;37.46;99719.06;4419263;32;19973;-49
2021/05/23 05:45:16;;;;;;;;;;;;;;;20.00;37.73;99716.41;4417661;32;20016;-48
2021/05/23 05:47:42;;;;;;;;;;;;;;;20.00;37.62;99716.41;4416429;32;20353;-51
2021/05/23 05:50:08;;;;;;;;;;;;;;;20.05;37.31;99719.94;4417424;32;20315;-50
2021/05/23 05:52:34;;;;;;;;;;;;;;;20.05;37.17;99728.75;4418606;32;19987;-46
2021/05/23 05:54:59;;;;;;;;;;;;;;;20.10;37.34;99730.53;4418375;32;19942;-49
2021/05/23 05:57:26;;;;;;;;;;;;;;;20.07;37.42;99734.06;4418627;32;20002;-45
2021/05/23 05:59:52;;;;;;;;;;;;;;;20.05;37.48;99741.06;4418570;32;19964;-50
2021/05/23 06:02:17;;;;;;;;;;;;;;;20.07;37.43;99734.94;4412828;32;19954;-50
2021/05/23 06:04:43;;;;;;;;;;;;;;;20.11;37.32;99735.81;4402505;32;19995;-51
2021/05/23 06:07:09;;;;;;;;;;;;;;;20.10;37.11;99741.09;4406522;32;19943;-51
2021/05/23 06:09:35;;;;;;;;;;;;;;;20.13;37.37;99749.94;4418561;32;19976;-48
2021/05/23 06:12:01;;;;;;;;;;;;;;;20.12;37.34;99745.53;4418562;32;20302;-51
2021/05/23 06:14:27;;;;;;;;;;;;;;;20.11;37.41;99750.78;4427976;32;19953;-48
2021/05/23 06:16:54;;;;;;;;;;;;;;;20.13;37.51;99752.56;4426325;32;19958;-51
2021/05/23 06:19:19;;;;;;;;;;;;;;;20.13;37.14;99763.13;4424034;32;19970;-51
2021/05/23 06:21:45;;;;;;;;;;;;;;;20.14;37.24;99758.75;4425698;32;19998;-50
2021/05/23 06:24:11;;;;;;;;;;;;;;;20.13;37.25;99765.78;4425784;32;19968;-49
2021/05/23 06:26:37;;;;;;;;;;;;;;;20.13;37.22;99771.06;4426259;32;20307;-50
2021/05/23 06:29:03;;;;;;;;;;;;;;;20.12;37.30;99766.66;4425467;32;19957;-47
2021/05/23 06:31:29;;;;;;;;;;;;;;;20.12;37.34;99773.69;4424596;32;19958;-49
2021/05/23 06:33:56;;;;;;;;;;;;;;;20.10;37.41;99760.50;4425583;32;20053;-51
2021/05/23 06:36:22;;;;;;;;;;;;;;;20.10;37.39;99765.78;4424984;32;20002;-50
2021/05/23 06:38:48;;;;;;;;;;;;;;;20.13;37.54;99771.06;4425386;32;20300;-49
2021/05/23 06:41:14;;;;;;;;;;;;;;;20.13;37.36;99780.78;4429557;32;19961;-50
2021/05/23 06:43:40;;;;;;;;;;;;;;;20.16;37.37;99781.66;4423807;32;19980;-46
2021/05/23 06:46:06;;;;;;;;;;;;;;;20.13;37.61;99789.56;4417622;32;20005;-49
2021/05/23 06:48:31;;;;;;;;;;;;;;;20.16;37.49;99794.00;4426771;32;19962;-51
2021/05/23 06:50:57;;;;;;;;;;;;;;;20.12;37.76;99793.09;4423600;32;19960;-48
2021/05/23 06:53:23;;;;;;;;;;;;;;;20.11;37.85;99793.06;4424634;32;19964;-52
2021/05/23 06:55:49;;;;;;;;;;;;;;;20.13;38.00;99794.00;4424754;32;19956;-50
2021/05/23 06:58:15;;;;;;;;;;;;;;;20.16;37.73;99796.66;4423773;32;19990;-47
2021/05/23 07:00:41;;;;;;;;;;;;;;;20.16;38.03;99796.66;4424699;32;20372;-49
2021/05/23 07:03:07;;;;;;;;;;;;;;;20.11;37.95;99795.72;4425204;32;19991;-48
2021/05/23 07:05:33;;;;;;;;;;;;;;;20.18;37.70;99800.16;4425192;32;19964;-51
2021/05/23 07:07:59;;;;;;;;;;;;;;;20.14;38.02;99803.69;4427524;32;20278;-50
2021/05/23 07:10:25;;;;;;;;;;;;;;;20.16;38.03;99791.34;4422570;32;19943;-52
2021/05/23 07:12:51;;;;;;;;;;;;;;;20.12;38.24;99801.03;4426690;32;19957;-50
2021/05/23 07:15:16;;;;;;;;;;;;;;;20.14;38.12;99793.97;4423138;32;19955;-48
2021/05/23 07:17:43;;;;;;;;;;;;;;;20.16;38.03;99802.78;4428356;32;19975;-50
2021/05/23 07:20:09;;;;;;;;;;;;;;;20.12;38.38;99811.59;4417150;32;20291;-46
2021/05/23 07:22:34;;;;;;;;;;;;;;;20.12;38.44;99814.25;4418419;32;19949;-47
2021/05/23 07:25:01;;;;;;;;;;;;;;;20.11;38.42;99809.84;4417738;32;20414;-49
2021/05/23 07:27:26;;;;;;;;;;;;;;;20.08;38.52;99818.63;4422226;32;19950;-49
2021/05/23 07:29:52;;;;;;;;;;;;;;;20.14;38.39;99820.41;4434609;32;19979;-51
2021/05/23 07:32:18;;;;;;;;;;;;;;;20.11;38.53;99823.06;4436012;32;19969;-47
2021/05/23 07:34:44;;;;;;;;;;;;;;;20.11;38.59;99825.69;4422822;32;19938;-50
2021/05/23 07:37:10;;;;;;;;;;;;;;;20.16;38.39;99829.22;4420892;32;19969;-48
2021/05/23 07:39:36;;;;;;;;;;;;;;;20.17;38.29;99825.72;4428947;32;19946;-52
2021/05/23 07:42:02;;;;;;;;;;;;;;;20.18;38.33;99829.25;4432570;32;19991;-50
2021/05/23 07:44:28;;;;;;;;;;;;;;;20.17;38.36;99836.28;4425778;32;20374;-51
2021/05/23 07:46:54;;;;;;;;;;;;;;;20.13;38.58;99829.22;4421559;32;19938;-51
2021/05/23 07:49:20;;;;;;;;;;;;;;;20.09;38.70;99838.03;4428431;32;19950;-49
2021/05/23 07:51:45;;;;;;;;;;;;;;;20.10;38.63;99829.22;4433105;32;19972;-48
2021/05/23 07:54:11;;;;;;;;;;;;;;;20.15;38.62;99830.12;4436580;32;19950;-49
2021/05/23 07:56:37;;;;;;;;;;;;;;;20.12;38.54;99838.03;4433832;32;20278;-49
2021/05/23 07:59:03;;;;;;;;;;;;;;;20.14;38.63;99830.12;4434910;32;19950;-47
2021/05/23 08:01:29;;;;;;;;;;;;;;;20.13;38.66;99834.50;4436438;32;19972;-52
2021/05/23 08:03:55;;;;;;;;;;;;;;;20.18;38.55;99837.19;4433878;32;20011;-51
2021/05/23 08:06:21;;;;;;;;;;;;;;;20.21;38.50;99838.09;4419726;32;19954;-52
2021/05/23 08:08:47;;;;;;;;;;;;;;;20.20;38.54;99841.63;4423886;32;19954;-47
2021/05/23 08:11:13;;;;;;;;;;;;;;;20.23;38.60;99843.38;4437195;32;19976;-49
2021/05/23 08:13:39;;;;;;;;;;;;;;;20.22;38.51;99850.44;4433351;32;19951;-47
2021/05/23 08:16:07;;;;;;;;;;;;;;;20.24;38.57;99842.47;4420647;32;20316;-49
2021/05/23 08:18:33;;;;;;;;;;;;;;;20.33;38.27;99836.38;4420281;32;19989;-50
2021/05/23 08:20:59;;;;;;;;;;;;;;;20.33;38.25;99853.09;4435379;32;20351;-50
2021/05/23 08:23:25;;;;;;;;;;;;;;;20.31;38.32;99848.69;4429721;32;20028;-50
2021/05/23 08:25:51;;;;;;;;;;;;;;;20.36;38.18;99836.38;4423870;32;19954;-48
2021/05/23 08:28:17;;;;;;;;;;;;;;;20.40;38.13;99843.44;4423272;32;20010;-57
2021/05/23 08:30:43;;;;;;;;;;;;;;;20.02;37.83;99858.25;4428477;32;20324;-57
2021/05/23 08:33:10;;;;;;;;;;;;;;;19.36;39.47;99850.72;4437000;32;19978;-57
2021/05/23 08:35:36;;;;;;;;;;;;;;;18.94;39.74;99852.94;4423394;32;19947;-57
2021/05/23 08:38:02;;;;;;;;;;;;;;;19.00;39.56;99857.41;4418611;32;20064;-58
2021/05/23 08:40:28;;;;;;;;;;;;;;;18.84;40.09;99857.25;4427329;32;20607;-58
2021/05/23 08:42:54;;;;;;;;;;;;;;;18.80;40.27;99861.59;4432877;32;19941;-59
2021/05/23 08:45:20;;;;;;;;;;;;;;;18.79;40.52;99864.25;4423991;32;20339;-57
2021/05/23 08:47:46;;;;;;;;;;;;;;;18.88;39.86;99866.09;4433469;32;19949;-57
2021/05/23 08:50:12;;;;;;;;;;;;;;;18.54;40.60;99867.47;4424691;32;19954;-58
2021/05/23 08:52:38;;;;;;;;;;;;;;;18.41;41.00;99873.47;4418207;32;19980;-58
2021/05/23 08:55:04;;;;;;;;;;;;;;;18.12;41.29;99881.88;4421057;32;20005;-57
2021/05/23 08:57:29;;;;;;;;;;;;;;;17.91;41.58;99872.75;4419688;32;19969;-59
2021/05/23 08:59:55;;;;;;;;;;;;;;;18.18;40.30;99881.94;4421858;32;20008;-58
2021/05/23 09:02:21;;;;;;;;;;;;;;;18.22;40.86;99877.59;4433974;32;19949;-56
2021/05/23 09:04:47;;;;;;;;;;;;;;;17.94;40.56;99885.97;4431068;32;19951;-56
2021/05/23 09:07:13;;;;;;;;;;;;;;;18.03;40.25;99887.00;4423565;32;19971;-57
2021/05/23 09:09:39;;;;;;;;;;;;;;;18.00;40.31;99897.47;4419913;32;19987;-55
2021/05/23 09:12:07;;;;;;;;;;;;;;;17.79;40.97;99886.66;4426443;32;19934;-55
2021/05/23 09:14:33;;;;;;;;;;;;;;;18.00;41.33;99897.47;4428134;32;19958;-56
2021/05/23 09:16:59;;;;;;;;;;;;;;;18.51;40.22;99888.53;4411454;32;20005;-57
2021/05/23 09:19:26;;;;;;;;;;;;;;;18.55;40.50;99902.66;4431437;32;20294;-56
2021/05/23 09:21:52;;;;;;;;;;;;;;;17.88;41.86;99906.06;4413349;32;19969;-56
2021/05/23 09:24:18;;;;;;;;;;;;;;;17.78;41.76;99905.97;4416418;32;20022;-57
2021/05/23 09:26:44;;;;;;;;;;;;;;;17.56;41.63;99894.16;4421666;32;20413;-56
2021/05/23 09:29:10;;;;;;;;;;;;;;;17.82;41.48;99894.59;4422044;32;19958;-58
2021/05/23 09:31:35;;;;;;;;;;;;;;;17.62;41.47;99896.91;4422613;32;19974;-58
2021/05/23 09:34:02;;;;;;;;;;;;;;;17.89;40.80;99890.31;4425416;32;19985;-56
2021/05/23 09:36:28;;;;;;;;;;;;;;;17.92;41.14;99900.00;4424547;32;19961;-56
2021/05/23 09:38:54;;;;;;;;;;;;;;;17.84;40.75;99895.50;4428420;32;20509;-57
2021/05/23 09:41:19;;;;;;;;;;;;;;;17.78;41.04;99899.78;4424485;32;19954;-58
2021/05/23 09:43:45;;;;;;;;;;;;;;;17.80;41.28;99904.22;4425969;32;20003;-58
2021/05/23 09:46:11;;;;;;;;;;;;;;;17.74;41.18;99916.41;4424762;32;19951;-55
2021/05/23 09:48:37;;;;;;;;;;;;;;;17.66;41.71;99918.94;4417399;32;19978;-57
2021/05/23 09:51:03;;;;;;;;;;;;;;;17.80;41.47;99916.50;4416590;32;19938;-57
2021/05/23 09:53:31;;;;;;;;;;;;;;;18.01;41.02;99921.19;4417725;32;20038;-57
2021/05/23 09:55:57;;;;;;;;;;;;;;;17.58;41.21;99910.00;4421978;32;20442;-55
2021/05/23 09:58:23;;;;;;;;;;;;;;;17.52;41.77;99921.31;4430418;32;20049;-57
2021/05/23 10:00:49;;;;;;;;;;;;;;;17.96;41.01;99918.53;4429058;32;19968;-57
2021/05/23 10:03:15;;;;;;;;;;;;;;;18.10;40.45;99918.75;4431493;32;19993;-57
2021/05/23 10:05:41;;;;;;;;;;;;;;;18.05;40.43;99917.81;4430560;32;19934;-57
2021/05/23 10:08:07;;;;;;;;;;;;;;;17.03;43.23;99927.47;4418513;32;19958;-55
2021/05/23 10:10:32;;;;;;;;;;;;;;;17.21;43.55;99933.91;4422496;32;20342;-50
2021/05/23 10:12:58;;;;;;;;;;;;;;;17.89;41.81;99932.44;4413791;32;19942;-50
2021/05/23 10:15:24;;;;;;;;;;;;;;;18.60;40.33;99929.09;4425420;32;19954;-50
2021/05/23 10:17:50;;;;;;;;;;;;;;;18.85;39.96;99916.19;4419582;32;20251;-52
2021/05/23 10:20:16;;;;;;;;;;;;;;;19.04;39.78;99919.94;4419205;32;19946;-48
2021/05/23 10:22:42;;;;;;;;;;;;;;;19.15;39.66;99920.03;4422876;32;19965;-51
2021/05/23 10:25:08;;;;;;;;;;;;;;;19.20;39.78;99928.88;4433367;32;19996;-50
2021/05/23 10:27:34;;;;;;;;;;;;;;;19.35;39.60;99934.34;4424613;32;19946;-51
2021/05/23 10:29:59;;;;;;;;;;;;;;;19.46;39.48;99941.47;4433007;32;20323;-53
2021/05/23 10:32:25;;;;;;;;;;;;;;;19.47;39.47;99943.25;4433085;32;19958;-51
2021/05/23 10:34:51;;;;;;;;;;;;;;;19.54;39.39;99945.06;4433277;32;19950;-53
2021/05/23 10:37:17;;;;;;;;;;;;;;;19.63;39.35;99949.53;4426731;32;19957;-49
2021/05/23 10:39:47;;;;;;;;;;;;;;;19.71;39.20;99949.63;4425363;32;19949;-54
2021/05/23 10:42:13;;;;;;;;;;;;;;;19.79;39.23;99950.53;4425806;32;20361;-52
2021/05/23 10:44:39;;;;;;;;;;;;;;;19.88;39.17;99949.72;4425691;32;20302;-51
2021/05/23 10:47:05;;;;;;;;;;;;;;;19.86;39.38;99939.16;4425139;32;20078;-52
2021/05/23 10:49:31;;;;;;;;;;;;;;;19.97;39.20;99951.59;4424564;32;19938;-47
2021/05/23 10:51:57;;;;;;;;;;;;;;;20.04;39.08;99948.13;4424996;32;19958;-50
2021/05/23 10:54:23;;;;;;;;;;;;;;;20.11;39.06;99956.97;4421988;32;20033;-50
2021/05/23 10:56:49;;;;;;;;;;;;;;;20.18;38.89;99959.66;4421593;32;19937;-52
2021/05/23 10:59:14;;;;;;;;;;;;;;;20.27;38.73;99952.66;4424376;32;19950;-49
2021/05/23 11:01:41;;;;;;;;;;;;;;;20.33;38.61;99958.88;4425689;32;20003;-52
2021/05/23 11:04:06;;;;;;;;;;;;;;;20.40;38.49;99974.78;4420265;32;19949;-52
2021/05/23 11:06:32;;;;;;;;;;;;;;;20.48;38.33;99979.25;4418384;32;19990;-49
2021/05/23 11:08:58;;;;;;;;;;;;;;;20.52;38.26;99973.97;4432912;32;20268;-51
2021/05/23 11:11:26;;;;;;;;;;;;;;;20.55;38.35;99972.22;4429629;32;20004;-50
2021/05/23 11:13:52;;;;;;;;;;;;;;;20.58;38.40;99979.31;4418601;32;19961;-56
2021/05/23 11:16:17;;;;;;;;;;;;;;;19.98;41.20;99990.38;4417669;32;19998;-56
2021/05/23 11:18:43;;;;;;;;;;;;;;;19.60;42.20;99982.09;4427278;32;19986;-56
2021/05/23 11:21:09;;;;;;;;;;;;;;;19.33;43.18;99966.84;4431707;32;19949;-56
2021/05/23 11:23:35;;;;;;;;;;;;;;;19.33;45.01;99967.75;4421336;32;19961;-56
2021/05/23 11:26:01;;;;;;;;;;;;;;;19.32;44.52;99966.00;4418764;32;19958;-57
2021/05/23 11:28:27;;;;;;;;;;;;;;;19.40;44.19;99967.81;4421643;32;19954;-56
2021/05/23 11:30:53;;;;;;;;;;;;;;;19.06;44.83;99963.94;4422789;32;20479;-56
2021/05/23 11:33:19;;;;;;;;;;;;;;;19.05;44.50;99961.28;4432785;32;19952;-54
2021/05/23 11:35:45;;;;;;;;;;;;;;;19.10;44.49;99960.47;4432662;32;20060;-55
2021/05/23 11:38:10;;;;;;;;;;;;;;;19.39;44.70;99961.66;4432690;32;19954;-54
2021/05/23 11:40:36;;;;;;;;;;;;;;;19.55;44.17;99957.38;4432244;32;19958;-54
2021/05/23 11:43:02;;;;;;;;;;;;;;;19.54;43.99;99954.75;4427099;32;19954;-56
2021/05/23 11:45:28;;;;;;;;;;;;;;;19.02;43.71;99961.28;4416657;32;20632;-55
2021/05/23 11:47:54;;;;;;;;;;;;;;;18.94;44.03;99951.47;4422871;32;19992;-55
2021/05/23 11:50:20;;;;;;;;;;;;;;;18.90;43.30;99956.69;4431729;32;19954;-55
2021/05/23 11:52:49;;;;;;;;;;;;;;;19.30;42.44;99941.31;4415471;32;19962;-55
2021/05/23 11:55:14;;;;;;;;;;;;;;;19.20;42.32;99940.34;4403606;32;19954;-53
2021/05/23 11:57:40;;;;;;;;;;;;;;;19.07;42.29;99941.94;4420263;32;19960;-54
2021/05/23 12:00:06;;;;;;;;;;;;;;;18.79;42.25;99944.25;4431106;32;20315;-54
2021/05/23 12:02:32;;;;;;;;;;;;;;;18.49;42.93;99948.28;4432668;32;19953;-53
2021/05/23 12:04:58;;;;;;;;;;;;;;;18.80;41.97;99947.78;4432139;32;19938;-55
2021/05/23 12:07:24;;;;;;;;;;;;;;;18.36;42.35;99946.34;4432056;32;20279;-54
2021/05/23 12:09:50;;;;;;;;;;;;;;;18.60;41.99;99942.25;4419146;32;19942;-54
2021/05/23 12:12:16;;;;;;;;;;;;;;;18.82;41.37;99944.28;4421465;32;19968;-55
2021/05/23 12:14:46;;;;;;;;;;;;;;;18.57;41.60;99952.75;4434299;32;20350;-54
2021/05/23 12:17:12;;;;;;;;;;;;;;;18.53;41.68;99965.91;4434675;32;19997;-55
2021/05/23 12:22:12;;;;;;;;;;;;;;;18.36;43.30;99975.34;4429437;32;20010;-54
2021/05/23 12:24:38;;;;;;;;;;;;;;;18.54;43.04;99975.59;4423354;32;19989;-52
2021/05/23 12:27:04;;;;;;;;;;;;;;;18.71;42.92;99977.56;4427008;32;19942;-54
2021/05/23 12:29:30;;;;;;;;;;;;;;;18.23;43.33;99988.34;4430548;32;19969;-56
2021/05/23 12:31:56;;;;;;;;;;;;;;;18.48;43.30;99971.97;4427449;32;20368;-53
2021/05/23 12:34:22;;;;;;;;;;;;;;;18.30;44.33;99980.50;4425036;32;20355;-54
2021/05/23 12:36:48;;;;;;;;;;;;;;;18.25;44.56;99972.53;4424290;32;19971;-52
2021/05/23 12:39:14;;;;;;;;;;;;;;;18.80;43.03;99966.25;4421770;32;19972;-50
2021/05/23 12:41:40;;;;;;;;;;;;;;;19.19;42.33;99959.69;4426618;32;20255;-52
2021/05/23 12:44:05;;;;;;;;;;;;;;;19.40;42.05;99952.88;4425509;32;19985;-47